Time;durP1;ratioP1;P1;durP2;ratioP2;P2;SDS_P1;SDS_P2;PMS_P1;PMS_P2;Temp;Humidity;BMP_temperature;BMP_pressure;BME280_temperature;BME280_humidity;BME280_pressure;Samples;Min_cycle;Max_cycle;Signal;HPM_P1;HPM_P2
2021/09/03 00:00:27;;;;;;;12.88;5.45;;;;;;;25.32;51.14;100933.22;5074695;28;20049;-71
2021/09/03 00:02:55;;;;;;;9.55;5.05;;;;;;;25.32;50.81;100934.09;5074633;28;20066;-71
2021/09/03 00:05:22;;;;;;;13.20;5.93;;;;;;;25.30;50.94;100924.28;5078334;27;20040;-71
2021/09/03 00:07:50;;;;;;;11.50;4.82;;;;;;;25.26;50.89;100912.75;5075068;28;20495;-70
2021/09/03 00:10:23;;;;;;;8.82;5.30;;;;;;;25.20;51.01;100918.41;5074875;28;20044;-71
2021/09/03 00:12:52;;;;;;;10.88;4.80;;;;;;;25.22;51.05;100924.59;5074555;28;20044;-70
2021/09/03 00:15:19;;;;;;;9.45;5.28;;;;;;;25.16;51.09;100927.56;5073512;28;20047;-71
2021/09/03 00:17:50;;;;;;;9.40;5.03;;;;;;;25.16;50.88;100914.06;5073351;28;20097;-71
2021/09/03 00:20:17;;;;;;;10.35;5.63;;;;;;;25.15;50.73;100923.09;5075463;28;20112;-71
2021/09/03 00:22:45;;;;;;;8.95;5.13;;;;;;;25.13;50.70;100906.09;5074339;28;20047;-71
2021/09/03 00:25:14;;;;;;;12.05;4.85;;;;;;;25.12;50.29;100906.16;5074300;28;20067;-72
2021/09/03 00:27:41;;;;;;;7.75;4.40;;;;;;;25.11;49.95;100909.78;5074246;28;20056;-71
2021/09/03 00:30:12;;;;;;;14.70;4.95;;;;;;;25.10;49.78;100900.81;5064818;28;20373;-70
2021/09/03 00:32:40;;;;;;;7.90;4.57;;;;;;;25.07;49.94;100902.78;5088575;28;20102;-70
2021/09/03 00:35:09;;;;;;;8.43;4.43;;;;;;;25.04;49.94;100908.28;5074024;28;20055;-70
2021/09/03 00:37:37;;;;;;;8.50;5.05;;;;;;;24.99;49.89;100917.47;5073506;28;20055;-70
2021/09/03 00:40:04;;;;;;;9.73;4.72;;;;;;;25.00;50.12;100897.63;5073846;28;20037;-71
2021/09/03 00:42:32;;;;;;;12.48;4.95;;;;;;;24.99;50.09;100901.28;5073769;28;20043;-71
2021/09/03 00:44:59;;;;;;;8.10;4.95;;;;;;;24.99;50.50;100903.09;5073737;28;20045;-70
2021/09/03 00:47:28;;;;;;;12.15;4.18;;;;;;;24.99;50.17;100892.28;5073402;28;20045;-69
2021/09/03 00:49:56;;;;;;;8.63;4.78;;;;;;;24.99;50.13;100889.59;5073699;28;20063;-70
2021/09/03 00:52:24;;;;;;;13.73;4.70;;;;;;;24.96;50.63;100908.59;5072405;28;20418;-70
2021/09/03 00:54:55;;;;;;;13.45;4.78;;;;;;;24.95;50.85;100906.84;5073537;28;20040;-70
2021/09/03 00:57:24;;;;;;;10.20;4.60;;;;;;;24.93;50.59;100906.94;5078015;27;20369;-69
2021/09/03 00:59:56;;;;;;;7.93;4.45;;;;;;;24.96;50.84;100903.19;5068727;28;20052;-69
2021/09/03 01:02:24;;;;;;;10.32;4.20;;;;;;;24.90;51.54;100903.47;5073633;28;20036;-70
2021/09/03 01:04:57;;;;;;;11.48;5.50;;;;;;;24.92;51.38;100899.75;5072857;28;20041;-70
2021/09/03 01:07:24;;;;;;;9.40;4.68;;;;;;;24.92;51.18;100896.19;5073313;28;20048;-70
2021/09/03 01:09:52;;;;;;;9.57;4.25;;;;;;;24.91;51.44;100895.31;5073535;28;20052;-72
2021/09/03 01:12:19;;;;;;;9.30;4.22;;;;;;;24.88;51.61;100898.06;5079187;27;20036;-70
2021/09/03 01:14:52;;;;;;;10.48;4.32;;;;;;;24.91;51.69;100906.09;5063142;28;20040;-70
2021/09/03 01:17:21;;;;;;;7.47;4.43;;;;;;;24.89;51.61;100899.88;5073108;28;20090;-70
2021/09/03 01:19:51;;;;;;;10.80;4.68;;;;;;;24.94;51.41;100897.00;5070176;28;20075;-71
2021/09/03 01:22:22;;;;;;;15.60;4.80;;;;;;;24.96;51.13;100895.97;5073294;28;20389;-70
2021/09/03 01:25:06;;;;;;;10.43;4.70;;;;;;;24.95;51.35;100896.03;5067288;28;20041;-69
2021/09/03 01:27:34;;;;;;;11.43;4.85;;;;;;;24.89;51.91;100915.16;5073427;28;20037;-71
2021/09/03 01:30:01;;;;;;;10.95;5.63;;;;;;;24.92;51.86;100917.78;5073242;28;20043;-71
2021/09/03 01:32:29;;;;;;;8.40;4.15;;;;;;;24.91;52.18;100910.63;5073477;27;20064;-71
2021/09/03 01:34:57;;;;;;;11.52;4.25;;;;;;;24.95;51.76;100923.06;5069551;28;20410;-71
2021/09/03 01:37:26;;;;;;;8.73;4.35;;;;;;;24.94;52.35;100902.41;5072536;28;20049;-72
2021/09/03 01:39:54;;;;;;;11.45;4.40;;;;;;;24.92;52.18;100893.47;5072711;28;20064;-71
2021/09/03 01:42:21;;;;;;;9.48;4.28;;;;;;;24.90;52.22;100882.72;5072501;28;20411;-71
2021/09/03 01:44:49;;;;;;;10.38;4.57;;;;;;;24.93;52.23;100879.03;5072429;28;20410;-71
2021/09/03 01:47:16;;;;;;;11.35;4.43;;;;;;;24.91;52.39;100876.38;5077082;27;20044;-71
2021/09/03 01:49:44;;;;;;;8.48;4.07;;;;;;;24.90;52.51;100890.84;5071193;28;20040;-71
2021/09/03 01:52:11;;;;;;;11.18;5.07;;;;;;;24.87;52.66;100890.94;5072187;28;20518;-70
2021/09/03 01:54:40;;;;;;;8.13;4.47;;;;;;;24.85;52.54;100882.00;5071943;28;20041;-70
2021/09/03 01:57:12;;;;;;;15.63;4.88;;;;;;;24.82;52.75;100887.53;5072588;28;20446;-71
2021/09/03 01:59:40;;;;;;;9.05;4.05;;;;;;;24.78;52.67;100883.22;5072910;27;20049;-70
2021/09/03 02:02:07;;;;;;;15.73;4.57;;;;;;;24.74;53.05;100888.81;5071791;28;20048;-70
2021/09/03 02:04:34;;;;;;;10.57;4.53;;;;;;;24.73;53.23;100879.81;5072233;28;20044;-70
2021/09/03 02:07:02;;;;;;;12.10;4.40;;;;;;;24.73;53.19;100889.75;5072369;28;20037;-71
2021/09/03 02:09:29;;;;;;;9.27;4.07;;;;;;;24.69;53.28;100894.38;5079242;27;20044;-70
2021/09/03 02:11:58;;;;;;;12.50;4.60;;;;;;;24.65;53.50;100890.06;5071912;28;20041;-71
2021/09/03 02:14:25;;;;;;;10.20;4.15;;;;;;;24.61;53.61;100880.31;5072251;28;20053;-71
2021/09/03 02:16:53;;;;;;;7.72;4.10;;;;;;;24.59;53.70;100893.00;5072223;28;20037;-72
2021/09/03 02:19:20;;;;;;;9.80;4.28;;;;;;;24.57;53.64;100881.38;5072204;28;20036;-71
2021/09/03 02:21:48;;;;;;;7.65;4.50;;;;;;;24.56;53.41;100866.09;5072175;28;20075;-71
2021/09/03 02:24:16;;;;;;;7.57;4.20;;;;;;;24.55;53.47;100867.94;5075823;27;20047;-71
2021/09/03 02:26:43;;;;;;;11.98;4.05;;;;;;;24.57;53.33;100876.84;5070009;28;20135;-71
2021/09/03 02:29:12;;;;;;;11.70;4.10;;;;;;;24.57;53.80;100865.16;5071963;28;20048;-71
2021/09/03 02:31:41;;;;;;;10.60;4.18;;;;;;;24.52;53.75;100873.47;5072265;28;20044;-71
2021/09/03 02:34:27;;;;;;;12.23;4.10;;;;;;;24.51;54.00;100862.72;5071737;28;20043;-72
2021/09/03 02:36:54;;;;;;;7.72;4.20;;;;;;;24.50;54.36;100872.63;5071538;28;20045;-71
2021/09/03 02:39:21;;;;;;;7.55;3.58;;;;;;;24.49;54.41;100860.06;5070183;28;20028;-71
2021/09/03 02:41:49;;;;;;;10.40;4.30;;;;;;;24.52;54.13;100849.16;5071651;28;20399;-70
2021/09/03 02:44:18;;;;;;;15.57;4.78;;;;;;;24.53;54.30;100861.72;5071755;28;20039;-70
2021/09/03 02:46:46;;;;;;;10.13;3.63;;;;;;;24.53;54.16;100867.13;5069645;28;20052;-71
2021/09/03 02:49:14;;;;;;;12.10;4.00;;;;;;;24.51;54.07;100860.91;5071252;28;20475;-71
2021/09/03 02:52:01;;;;;;;9.57;3.80;;;;;;;24.44;54.82;100862.09;5070984;28;20396;-71
2021/09/03 02:54:29;;;;;;;13.82;4.40;;;;;;;24.43;54.82;100863.03;5071618;28;20044;-71
2021/09/03 02:56:56;;;;;;;11.45;3.90;;;;;;;24.47;54.61;100861.09;5071791;28;20432;-70
2021/09/03 02:59:25;;;;;;;10.02;4.13;;;;;;;24.47;54.63;100853.88;5071332;28;20036;-70
2021/09/03 03:01:53;;;;;;;13.63;4.07;;;;;;;24.43;54.61;100857.63;5070548;28;20052;-70
2021/09/03 03:04:20;;;;;;;8.75;3.60;;;;;;;24.42;54.96;100860.38;5069478;28;20036;-70
2021/09/03 03:07:08;;;;;;;10.90;3.10;;;;;;;24.40;55.04;100863.16;5068884;28;20048;-69
2021/09/03 03:09:35;;;;;;;11.07;4.40;;;;;;;24.42;54.92;100863.97;5068219;28;20049;-70
2021/09/03 03:12:04;;;;;;;12.73;3.67;;;;;;;24.37;55.38;100855.19;5071432;28;20499;-70
2021/09/03 03:14:34;;;;;;;12.55;3.63;;;;;;;24.38;55.55;100858.75;5071489;28;20040;-70
2021/09/03 03:17:02;;;;;;;9.68;3.72;;;;;;;24.35;55.34;100859.75;5071507;28;20446;-70
2021/09/03 03:19:31;;;;;;;8.20;3.33;;;;;;;24.34;55.48;100863.41;5071714;28;20056;-70
2021/09/03 03:21:59;;;;;;;7.97;3.55;;;;;;;24.33;55.65;100852.66;5074168;28;20073;-70
2021/09/03 03:24:27;;;;;;;10.07;3.47;;;;;;;24.30;55.74;100850.97;5075147;28;20056;-69
2021/09/03 03:26:56;;;;;;;13.70;3.58;;;;;;;24.32;55.28;100853.59;5090483;27;20069;-69
2021/09/03 03:29:24;;;;;;;9.90;3.38;;;;;;;24.30;55.33;100850.97;5075328;28;20459;-70
2021/09/03 03:31:53;;;;;;;8.30;3.45;;;;;;;24.29;55.63;100851.00;5071394;28;20036;-69
2021/09/03 03:34:38;;;;;;;13.38;4.03;;;;;;;24.28;55.68;100838.50;5074601;28;20044;-70
2021/09/03 03:37:08;;;;;;;13.63;3.55;;;;;;;24.27;55.50;100861.00;5075381;28;20429;-69
2021/09/03 03:39:35;;;;;;;11.00;3.00;;;;;;;24.27;55.34;100850.22;5075560;28;20526;-70
2021/09/03 03:42:08;;;;;;;12.75;3.60;;;;;;;24.28;55.07;100841.19;5074664;28;20131;-69
2021/09/03 03:44:35;;;;;;;8.90;3.35;;;;;;;24.26;55.28;100838.53;5075619;28;20051;-70
2021/09/03 03:47:05;;;;;;;10.32;3.65;;;;;;;24.23;55.40;100842.22;5077739;27;20037;-69
2021/09/03 03:49:32;;;;;;;9.48;3.20;;;;;;;24.23;55.41;100853.00;5069486;28;20040;-70
2021/09/03 03:52:00;;;;;;;10.52;3.75;;;;;;;24.23;55.19;100874.59;5079131;27;20043;-70
2021/09/03 03:54:27;;;;;;;9.50;3.45;;;;;;;24.23;55.15;100873.72;5073979;28;20055;-70
2021/09/03 03:56:57;;;;;;;9.25;3.42;;;;;;;24.29;54.96;100883.41;5074502;28;20040;-70
2021/09/03 03:59:25;;;;;;;7.45;2.90;;;;;;;24.34;55.09;100876.91;5074756;28;20479;-70
2021/09/03 04:01:52;;;;;;;15.82;4.55;;;;;;;24.37;55.24;100867.78;5074163;27;20044;-70
2021/09/03 04:04:21;;;;;;;8.77;3.20;;;;;;;24.43;55.24;100872.94;5074140;28;20036;-70
2021/09/03 04:06:49;;;;;;;8.80;3.38;;;;;;;24.51;55.13;100860.03;5074680;28;20044;-70
2021/09/03 04:09:16;;;;;;;12.98;3.28;;;;;;;24.57;55.35;100862.47;5073790;28;20036;-70
2021/09/03 04:11:46;;;;;;;6.60;2.70;;;;;;;24.62;55.18;100866.75;5074345;28;20400;-69
2021/09/03 04:14:15;;;;;;;12.23;3.50;;;;;;;24.64;55.26;100863.97;5074510;28;20044;-69
2021/09/03 04:16:43;;;;;;;8.45;2.92;;;;;;;24.76;55.12;100873.41;5077552;27;20048;-69
2021/09/03 04:19:10;;;;;;;11.05;3.47;;;;;;;24.84;55.02;100887.47;5070976;28;20039;-69
2021/09/03 04:21:41;;;;;;;7.35;2.55;;;;;;;24.89;54.96;100897.16;5074808;28;20040;-70
2021/09/03 04:24:25;;;;;;;9.13;2.92;;;;;;;24.88;54.49;100889.97;5071741;28;20040;-70
2021/09/03 04:26:52;;;;;;;6.72;2.33;;;;;;;24.89;53.61;100894.47;5074442;28;20049;-70
2021/09/03 04:29:19;;;;;;;14.02;3.00;;;;;;;24.91;52.92;100900.69;5074117;28;20044;-70
2021/09/03 04:31:47;;;;;;;7.72;2.58;;;;;;;24.95;52.68;100901.44;5070769;28;20044;-70
2021/09/03 04:34:16;;;;;;;7.00;2.30;;;;;;;24.99;52.57;100897.69;5073971;28;20064;-70
2021/09/03 04:36:46;;;;;;;9.20;2.47;;;;;;;24.99;52.13;100892.28;5073154;28;20052;-71
2021/09/03 04:39:14;;;;;;;12.88;3.17;;;;;;;24.96;51.98;100909.47;5073480;28;20040;-69
2021/09/03 04:41:41;;;;;;;13.15;3.00;;;;;;;25.00;52.07;100907.56;5069340;28;20052;-69
2021/09/03 04:44:09;;;;;;;9.73;2.63;;;;;;;25.06;51.93;100901.00;5073441;28;20108;-69
2021/09/03 04:46:36;;;;;;;12.85;2.40;;;;;;;25.09;51.91;100896.34;5069682;28;20439;-70
2021/09/03 04:49:04;;;;;;;5.78;2.50;;;;;;;25.18;51.41;100895.09;5062370;27;20047;-70
2021/09/03 04:51:37;;;;;;;9.18;2.25;;;;;;;25.40;50.70;100904.03;5064576;28;20443;-70
2021/09/03 04:54:05;;;;;;;5.32;1.92;;;;;;;25.46;50.31;100911.88;5051626;28;20040;-70
2021/09/03 04:56:33;;;;;;;6.10;1.83;;;;;;;25.57;49.92;100924.91;5048546;28;20052;-70
2021/09/03 04:59:00;;;;;;;8.18;1.90;;;;;;;25.60;49.66;100922.97;5048051;28;20037;-70
2021/09/03 05:01:27;;;;;;;9.38;1.90;;;;;;;25.59;49.42;100934.78;5053369;28;20044;-70
2021/09/03 05:03:56;;;;;;;5.00;1.52;;;;;;;25.56;49.54;100929.44;5050090;28;20048;-70
2021/09/03 05:06:26;;;;;;;5.40;1.60;;;;;;;25.84;49.18;100936.38;5053388;28;20049;-70
2021/09/03 05:08:53;;;;;;;5.38;1.83;;;;;;;26.12;48.78;100936.91;5047553;28;20037;-70
2021/09/03 05:11:22;;;;;;;4.07;1.65;;;;;;;26.12;48.40;100929.63;5058223;28;20048;-70
2021/09/03 05:13:49;;;;;;;21.63;2.63;;;;;;;26.05;47.92;100935.41;5053252;28;20049;-70
2021/09/03 05:16:18;;;;;;;11.88;2.03;;;;;;;26.02;47.82;100943.66;5044518;28;20041;-70
2021/09/03 05:18:45;;;;;;;5.68;1.80;;;;;;;26.04;48.04;100945.38;5052921;28;20480;-70
2021/09/03 05:21:13;;;;;;;6.80;1.90;;;;;;;26.05;47.89;100930.00;5053177;28;20048;-70
2021/09/03 05:23:41;;;;;;;5.88;2.30;;;;;;;26.00;48.30;100941.03;5056640;28;20425;-69
2021/09/03 05:26:08;;;;;;;8.35;2.17;;;;;;;25.98;48.07;100940.22;5050939;28;20041;-70
2021/09/03 05:28:38;;;;;;;5.57;1.92;;;;;;;26.01;48.08;100931.06;5053130;28;20407;-70
2021/09/03 05:31:05;;;;;;;7.25;2.10;;;;;;;26.01;48.33;100931.06;5053325;28;20032;-70
2021/09/03 05:33:36;;;;;;;4.97;1.60;;;;;;;25.97;47.97;100943.88;5052500;28;20052;-70
2021/09/03 05:36:04;;;;;;;8.65;1.95;;;;;;;25.89;47.94;100956.88;5052214;28;20041;-70
2021/09/03 05:38:34;;;;;;;7.03;1.52;;;;;;;25.92;47.95;100969.41;5051186;28;20037;-70
2021/09/03 05:41:01;;;;;;;11.25;1.80;;;;;;;25.92;48.08;100959.44;5052459;28;20037;-70
2021/09/03 05:43:28;;;;;;;6.57;1.50;;;;;;;25.97;47.90;100979.06;5051427;28;20037;-71
2021/09/03 05:45:59;;;;;;;7.28;1.38;;;;;;;26.28;47.52;100972.28;5058153;28;20049;-70
2021/09/03 05:48:42;;;;;;;7.20;2.25;;;;;;;26.66;47.17;100976.78;5052404;28;20377;-70
2021/09/03 05:51:10;;;;;;;10.45;1.85;;;;;;;26.66;47.07;100974.06;5052266;28;20557;-70
2021/09/03 05:53:38;;;;;;;6.03;1.40;;;;;;;26.53;46.93;100986.44;5050245;28;20427;-71
2021/09/03 05:56:06;;;;;;;9.48;1.80;;;;;;;26.69;46.87;100984.78;5060437;28;20457;-70
2021/09/03 05:58:36;;;;;;;6.57;1.60;;;;;;;26.71;46.96;100976.59;5052318;28;20502;-70
2021/09/03 06:01:06;;;;;;;6.97;1.88;;;;;;;26.69;46.87;100978.47;5052448;28;20368;-70
2021/09/03 06:03:33;;;;;;;8.77;1.70;;;;;;;26.66;47.58;100979.50;5049997;28;20044;-70
2021/09/03 06:06:00;;;;;;;11.40;1.27;;;;;;;26.94;46.95;100988.09;5052296;28;20040;-70
2021/09/03 06:08:27;;;;;;;8.88;1.70;;;;;;;26.98;46.50;100990.66;5046684;28;20040;-69
2021/09/03 06:10:56;;;;;;;8.23;2.08;;;;;;;26.94;47.06;100998.94;5047627;28;20124;-70
2021/09/03 06:13:26;;;;;;;11.32;2.00;;;;;;;26.85;47.25;101002.03;5045504;28;20033;-70
2021/09/03 06:15:53;;;;;;;8.35;1.83;;;;;;;27.17;47.09;100997.81;5052000;28;20064;-71
2021/09/03 06:18:22;;;;;;;9.82;1.63;;;;;;;27.91;46.66;100994.97;5056594;28;20094;-70
2021/09/03 06:20:49;;;;;;;9.80;1.40;;;;;;;28.31;45.50;100996.47;5051445;28;20385;-71
2021/09/03 06:23:17;;;;;;;8.65;1.77;;;;;;;28.68;44.44;101006.22;5051668;28;20052;-71
2021/09/03 06:25:44;;;;;;;8.27;1.88;;;;;;;28.64;44.54;101008.19;5052042;28;20044;-71
2021/09/03 06:28:12;;;;;;;10.90;2.20;;;;;;;28.72;44.26;100999.63;5052251;28;20090;-70
2021/09/03 06:31:00;;;;;;;7.85;1.63;;;;;;;29.09;43.05;101001.16;5031495;28;20049;-71
2021/09/03 06:33:29;;;;;;;8.15;1.77;;;;;;;29.52;42.04;101008.63;5031771;28;20064;-71
2021/09/03 06:35:56;;;;;;;8.98;1.88;;;;;;;29.83;41.65;101015.81;5019145;28;20052;-71
2021/09/03 06:38:23;;;;;;;9.27;2.30;;;;;;;30.11;40.99;101020.50;5030641;28;20041;-71
2021/09/03 06:40:57;;;;;;;;;;;;;;;30.27;40.78;101004.94;5028002;28;20037;-72
2021/09/03 06:43:24;;;;;;;9.80;1.67;;;;;;;30.34;40.60;101024.50;5031657;28;19921;-71
2021/09/03 06:45:51;;;;;;;7.72;1.73;;;;;;;30.47;40.11;101015.47;5029836;28;20174;-71
2021/09/03 06:48:22;;;;;;;6.55;1.63;;;;;;;30.60;39.51;101028.34;5031344;28;20044;-70
2021/09/03 06:50:51;;;;;;;8.50;1.77;;;;;;;30.72;39.36;101017.53;5031496;28;20473;-71
2021/09/03 06:53:19;;;;;;;10.23;2.20;;;;;;;30.66;39.66;101022.50;5031280;28;20038;-71
2021/09/03 06:55:48;;;;;;;10.60;1.75;;;;;;;30.78;39.32;101024.47;5031363;28;20041;-72
2021/09/03 06:58:15;;;;;;;7.28;1.63;;;;;;;30.50;39.44;101033.53;5031422;28;20043;-71
2021/09/03 07:00:43;;;;;;;8.55;2.03;;;;;;;30.63;39.76;101022.72;5035040;28;20041;-71
2021/09/03 07:03:10;;;;;;;11.63;2.10;;;;;;;30.84;38.91;101027.69;5036816;28;20462;-70
2021/09/03 07:05:38;;;;;;;10.95;1.80;;;;;;;30.91;38.61;101035.47;5035922;28;20037;-70
2021/09/03 07:08:07;;;;;;;5.35;1.40;;;;;;;31.12;38.43;101036.81;5055878;28;20037;-71
2021/09/03 07:10:35;;;;;;;8.15;1.88;;;;;;;31.24;38.07;101041.47;5049567;28;20044;-71
2021/09/03 07:13:03;;;;;;;6.50;1.50;;;;;;;31.18;38.51;101041.84;5055434;28;20369;-70
2021/09/03 07:15:32;;;;;;;13.45;2.33;;;;;;;31.23;38.00;101031.53;5055182;28;20053;-71
2021/09/03 07:18:01;;;;;;;7.28;1.88;;;;;;;31.44;38.19;101029.25;5055640;28;20048;-71
2021/09/03 07:20:30;;;;;;;14.50;2.00;;;;;;;31.54;38.03;101023.03;5063099;28;20609;-70
2021/09/03 07:23:00;;;;;;;20.25;3.92;;;;;;;31.45;38.12;101042.75;5049535;28;20056;-71
2021/09/03 07:25:29;;;;;;;10.25;2.92;;;;;;;31.33;38.62;101054.50;5050415;28;20037;-71
2021/09/03 07:28:00;;;;;;;7.53;1.70;;;;;;;31.11;38.68;101051.44;5052374;28;20484;-71
2021/09/03 07:30:29;;;;;;;11.90;2.45;;;;;;;31.37;38.19;101050.63;5058781;28;20087;-71
2021/09/03 07:33:00;;;;;;;9.98;2.50;;;;;;;31.68;37.46;101046.72;5048374;28;20205;-71
2021/09/03 07:35:28;;;;;;;10.45;2.22;;;;;;;31.81;37.13;101047.63;5054968;28;20391;-71
2021/09/03 07:37:57;;;;;;;11.35;2.03;;;;;;;32.03;37.23;101045.16;5055209;28;20095;-71
2021/09/03 07:40:26;;;;;;;12.40;2.10;;;;;;;32.30;36.93;101042.38;5055157;28;20053;-71
2021/09/03 07:42:55;;;;;;;12.25;1.90;;;;;;;32.39;36.86;101057.28;5055203;28;20052;-72
2021/09/03 07:45:23;;;;;;;11.20;2.30;;;;;;;32.46;36.50;101050.38;5054038;28;20036;-71
2021/09/03 07:47:51;;;;;;;5.93;1.55;;;;;;;32.51;36.25;101066.47;5054048;28;20124;-71
2021/09/03 07:50:19;;;;;;;6.03;1.75;;;;;;;32.60;36.42;101057.63;5054942;28;20373;-71
2021/09/03 07:52:47;;;;;;;8.55;1.58;;;;;;;32.74;36.56;101057.53;5054660;28;20040;-71
2021/09/03 07:55:15;;;;;;;10.05;1.95;;;;;;;32.77;35.98;101074.59;5054922;28;20112;-70
2021/09/03 07:57:42;;;;;;;13.38;2.15;;;;;;;32.85;35.90;101043.94;5050154;28;20059;-71
2021/09/03 08:00:13;;;;;;;12.15;2.30;;;;;;;32.94;35.85;101059.69;5051416;28;20048;-70
2021/09/03 08:02:42;;;;;;;9.55;2.10;;;;;;;32.90;35.98;101052.69;5053993;28;20488;-70
2021/09/03 08:05:11;;;;;;;16.25;2.05;;;;;;;33.08;35.87;101064.16;5052681;28;20037;-68
2021/09/03 08:07:41;;;;;;;12.15;2.50;;;;;;;33.13;35.50;101060.09;5053229;28;20045;-72
2021/09/03 08:10:09;;;;;;;7.93;1.50;;;;;;;33.19;35.66;101058.78;5053972;28;20044;-71
2021/09/03 08:12:37;;;;;;;9.02;2.03;;;;;;;33.12;35.57;101052.88;5044714;28;20071;-71
2021/09/03 08:15:06;;;;;;;7.32;1.60;;;;;;;33.22;35.68;101064.91;5053137;28;20045;-70
2021/09/03 08:17:36;;;;;;;7.55;1.75;;;;;;;33.46;35.17;101061.34;5043179;28;20047;-71
2021/09/03 08:20:07;;;;;;;6.75;2.13;;;;;;;33.66;34.89;101057.97;5051428;28;20045;-71
2021/09/03 08:22:34;;;;;;;10.70;2.13;;;;;;;33.79;34.54;101066.16;5061871;28;20054;-70
2021/09/03 08:25:02;;;;;;;7.50;1.85;;;;;;;33.67;34.46;101069.78;5053998;28;20037;-71
2021/09/03 08:27:29;;;;;;;10.18;2.38;;;;;;;33.67;34.57;101059.72;5054060;28;20048;-71
2021/09/03 08:29:57;;;;;;;6.63;1.60;;;;;;;33.71;34.42;101077.69;5047922;28;20052;-70
2021/09/03 08:32:24;;;;;;;14.40;1.80;;;;;;;33.60;34.38;101074.88;5055144;28;20044;-71
2021/09/03 08:34:53;;;;;;;8.25;2.08;;;;;;;33.67;34.18;101065.19;5056133;28;20045;-70
2021/09/03 08:37:20;;;;;;;12.68;2.10;;;;;;;33.82;34.31;101063.16;5057752;28;20033;-70
2021/09/03 08:39:49;;;;;;;8.10;2.25;;;;;;;33.84;34.46;101069.41;5047392;28;20047;-70
2021/09/03 08:42:18;;;;;;;20.85;3.05;;;;;;;34.06;34.38;101076.84;5053369;28;20063;-70
2021/09/03 08:44:46;;;;;;;15.77;2.42;;;;;;;34.16;34.67;101070.53;5070286;27;20049;-70
2021/09/03 08:47:14;;;;;;;22.63;5.07;;;;;;;34.07;34.85;101054.78;5053965;28;20073;-70
2021/09/03 08:49:43;;;;;;;9.63;2.30;;;;;;;33.93;34.95;101061.34;5057485;28;20045;-70
2021/09/03 08:52:16;;;;;;;7.68;1.90;;;;;;;33.92;34.65;101062.34;5044997;28;20045;-70
2021/09/03 08:54:44;;;;;;;14.95;3.90;;;;;;;33.98;34.37;101066.47;5048969;28;20050;-70
2021/09/03 08:57:13;;;;;;;17.58;3.00;;;;;;;34.05;34.30;101053.16;5062125;28;20044;-69
2021/09/03 08:59:40;;;;;;;13.93;2.97;;;;;;;33.97;34.51;101045.53;5052331;28;20068;-69
2021/09/03 09:02:20;;;;;;;28.20;4.88;;;;;;;34.03;34.57;101052.41;5054235;28;20041;-70
2021/09/03 09:04:52;;;;;;;9.65;2.20;;;;;;;33.95;34.81;101047.50;5052701;28;20044;-69
2021/09/03 09:07:21;;;;;;;11.23;1.92;;;;;;;34.10;34.73;101049.06;5052846;28;20037;-70
2021/09/03 09:09:48;;;;;;;11.07;2.03;;;;;;;34.13;34.30;101051.59;5053411;28;20408;-70
2021/09/03 09:12:21;;;;;;;8.80;1.83;;;;;;;34.14;34.01;101035.97;5052065;28;20056;-70
2021/09/03 09:15:03;;;;;;;9.52;2.30;;;;;;;34.06;33.48;101035.72;5060989;28;20487;-70
2021/09/03 09:17:37;;;;;;;11.73;2.50;;;;;;;33.87;33.63;101023.44;5051241;28;20385;-71
2021/09/03 09:20:07;;;;;;;9.38;2.20;;;;;;;33.69;33.83;101030.31;5056427;28;20541;-71
2021/09/03 09:22:54;;;;;;;13.25;2.47;;;;;;;33.69;34.42;101034.91;5050417;28;20115;-70
2021/09/03 09:25:24;;;;;;;10.50;2.30;;;;;;;33.69;34.16;101030.31;5048940;28;20049;-70
2021/09/03 09:27:55;;;;;;;5.63;1.95;;;;;;;33.67;33.64;101031.44;5044728;28;20064;-70
2021/09/03 09:30:24;;;;;;;7.20;1.80;;;;;;;33.61;33.81;101028.16;5051708;28;20427;-71
2021/09/03 09:33:13;;;;;;;10.57;2.05;;;;;;;33.38;34.42;101036.38;5050091;28;20048;-72
2021/09/03 09:35:46;;;;;;;12.00;2.03;;;;;;;33.18;34.86;101007.72;5052070;28;20373;-68
2021/09/03 09:38:15;;;;;;;15.30;3.40;;;;;;;33.16;35.11;101002.38;5049647;28;20045;-70
2021/09/03 09:41:08;;;;;;;9.27;2.45;;;;;;;33.18;35.05;100989.44;5046356;28;20278;-71
2021/09/03 09:43:39;;;;;;;11.55;2.55;;;;;;;33.22;34.87;101009.28;5051192;28;20060;-71
2021/09/03 09:46:25;;;;;;;11.88;2.28;;;;;;;33.23;34.96;101006.44;5052248;28;20033;-71
2021/09/03 09:48:57;;;;;;;11.20;2.00;;;;;;;33.06;34.73;101004.06;5051596;28;20041;-70
2021/09/03 09:51:28;;;;;;;8.60;2.10;;;;;;;33.07;35.16;100994.88;5047704;28;20095;-71
2021/09/03 09:53:58;;;;;;;11.60;2.10;;;;;;;32.96;35.37;100988.41;5052725;28;20041;-71
2021/09/03 09:56:47;;;;;;;9.82;2.00;;;;;;;32.88;34.79;100999.94;5041120;28;20055;-71
2021/09/03 09:59:16;;;;;;;7.80;2.25;;;;;;;32.84;34.45;100999.28;5052595;28;20419;-70
2021/09/03 10:01:46;;;;;;;13.00;2.25;;;;;;;32.72;34.44;100993.84;5056427;28;20049;-70
2021/09/03 10:04:15;;;;;;;10.50;2.15;;;;;;;32.67;34.91;101002.41;5052069;28;20037;-70
2021/09/03 10:06:44;;;;;;;7.93;1.88;;;;;;;32.67;34.86;101013.34;5053431;28;20049;-71
2021/09/03 10:09:32;;;;;;;7.32;1.92;;;;;;;32.55;35.29;101005.13;5055206;28;20040;-70
2021/09/03 10:12:04;;;;;;;8.50;1.98;;;;;;;32.53;35.69;101005.22;5052278;28;20048;-70
2021/09/03 10:14:37;;;;;;;10.02;1.58;;;;;;;32.47;35.36;100999.31;5057424;28;20052;-69
2021/09/03 10:17:10;;;;;;;7.70;1.83;;;;;;;32.44;35.38;101005.88;5050891;28;20063;-69
2021/09/03 10:19:40;;;;;;;8.52;2.40;;;;;;;32.41;35.77;101011.56;5051605;28;20045;-70
2021/09/03 10:22:10;;;;;;;11.55;2.47;;;;;;;32.51;35.43;101009.91;5052180;28;20060;-69
2021/09/03 10:24:42;;;;;;;12.25;2.75;;;;;;;32.56;35.05;101007.72;5051695;28;20408;-70
2021/09/03 10:27:11;;;;;;;8.02;1.60;;;;;;;32.49;34.95;101006.44;5052285;28;20060;-70
2021/09/03 10:29:39;;;;;;;8.52;1.95;;;;;;;32.41;35.04;101017.03;5042192;28;20048;-70
2021/09/03 10:32:26;;;;;;;11.23;1.88;;;;;;;32.40;35.20;101021.63;5049687;28;20033;-70
2021/09/03 10:35:03;;;;;;;10.57;2.40;;;;;;;32.28;34.92;101000.66;5046755;28;20072;-70
2021/09/03 10:37:38;;;;;;;7.72;1.80;;;;;;;32.18;34.62;100995.91;5046753;28;20040;-70
2021/09/03 10:40:13;;;;;;;6.70;2.05;;;;;;;32.20;34.92;100993.97;5043501;28;20041;-70
2021/09/03 10:42:59;;;;;;;9.00;1.90;;;;;;;32.28;34.75;101002.50;5051797;28;20057;-70
2021/09/03 10:45:31;;;;;;;9.60;1.90;;;;;;;32.33;35.13;101014.84;5050401;28;20041;-70
2021/09/03 10:48:07;;;;;;;15.45;2.15;;;;;;;32.28;35.19;101017.03;5048304;28;20052;-70
2021/09/03 10:50:37;;;;;;;9.63;2.03;;;;;;;32.36;35.90;101011.03;5048830;28;20041;-70
2021/09/03 10:53:28;;;;;;;9.60;1.90;;;;;;;32.59;35.30;100999.31;5044756;28;20055;-70
2021/09/03 10:56:14;;;;;;;10.38;1.60;;;;;;;32.52;35.04;101002.59;5064978;28;20372;-69
2021/09/03 10:58:45;;;;;;;;;;;;;;;32.54;35.03;100996.03;5051543;28;20073;-68
2021/09/03 11:01:38;;;;;;;10.27;2.50;;;;;;;32.72;35.74;101013.88;5050404;28;19928;-68
2021/09/03 11:04:24;;;;;;;10.00;2.17;;;;;;;32.81;35.20;101020.53;5050802;28;20041;-68
2021/09/03 11:07:12;;;;;;;9.13;2.10;;;;;;;32.98;34.83;101016.53;5050352;28;20045;-67
2021/09/03 11:09:45;;;;;;;11.23;1.90;;;;;;;33.15;34.34;101014.28;5051283;28;20503;-68
2021/09/03 11:12:21;;;;;;;10.00;1.90;;;;;;;33.17;34.32;101019.66;5056741;28;20047;-68
2021/09/03 11:14:54;;;;;;;12.00;2.00;;;;;;;33.31;34.00;101018.66;5051244;28;20399;-67
2021/09/03 11:17:21;;;;;;;11.27;2.40;;;;;;;33.32;33.37;101002.13;5050896;28;20060;-68
2021/09/03 11:19:48;;;;;;;9.68;1.85;;;;;;;33.41;33.67;101025.22;5048802;28;20396;-67
2021/09/03 11:22:19;;;;;;;6.18;1.90;;;;;;;33.62;33.52;101021.69;5050911;28;20041;-66
2021/09/03 11:24:49;;;;;;;11.88;2.35;;;;;;;33.79;33.15;101017.69;5049708;28;20048;-67
2021/09/03 11:27:26;;;;;;;9.68;1.92;;;;;;;33.85;32.58;101017.22;5045409;28;20095;-67
2021/09/03 11:29:57;;;;;;;6.65;1.90;;;;;;;33.98;32.69;101007.06;5055769;28;20042;-67
2021/09/03 11:32:25;;;;;;;10.80;1.95;;;;;;;34.09;32.48;100999.84;5050469;28;20361;-67
2021/09/03 11:34:56;;;;;;;10.90;2.30;;;;;;;34.27;32.05;100998.41;5045251;28;20044;-68